createdAt,value
2023-03-07T00:00:08.385Z,13.50
2023-03-07T00:02:56.486Z,14.40
2023-03-07T00:05:24.710Z,14.90
2023-03-07T00:07:52.875Z,19.70
2023-03-07T00:10:21.052Z,16.70
2023-03-07T00:12:49.214Z,12.50
2023-03-07T00:15:18.011Z,13.30
2023-03-07T00:17:46.175Z,15.80
2023-03-07T00:20:15.476Z,20.00
2023-03-07T00:22:44.368Z,21.10
2023-03-07T00:25:13.488Z,19.90
2023-03-07T00:27:41.834Z,16.30
2023-03-07T00:30:12.606Z,14.10
2023-03-07T00:32:40.984Z,14.40
2023-03-07T00:35:09.219Z,12.90
2023-03-07T00:37:37.388Z,16.20
2023-03-07T00:40:07.604Z,13.90
2023-03-07T00:42:35.794Z,14.30
2023-03-07T00:45:04.261Z,18.00
2023-03-07T00:47:32.541Z,19.20
2023-03-07T00:50:00.811Z,17.80
2023-03-07T00:52:28.934Z,16.70
2023-03-07T00:54:57.363Z,13.60
2023-03-07T00:57:25.742Z,14.80
2023-03-07T00:59:54.115Z,14.40
2023-03-07T01:02:22.493Z,16.00
2023-03-07T01:04:50.768Z,16.10
2023-03-07T01:07:18.940Z,17.80
2023-03-07T01:09:51.512Z,16.90
2023-03-07T01:12:19.900Z,15.40
2023-03-07T01:14:51.218Z,15.30
2023-03-07T01:17:19.517Z,15.30
2023-03-07T01:19:47.993Z,17.10
2023-03-07T01:22:16.372Z,20.80
2023-03-07T01:24:44.577Z,18.20
2023-03-07T01:27:12.817Z,16.70
2023-03-07T01:29:41.195Z,18.70
2023-03-07T01:32:09.877Z,16.90
2023-03-07T01:34:38.564Z,20.20
2023-03-07T01:37:06.734Z,30.80
2023-03-07T01:39:35.218Z,30.50
2023-03-07T01:42:09.633Z,27.30
2023-03-07T01:45:02.902Z,26.50
2023-03-07T01:47:43.634Z,24.90
2023-03-07T01:50:16.541Z,25.60
2023-03-07T01:52:52.502Z,24.20
2023-03-07T01:55:25.212Z,22.10
2023-03-07T01:57:57.033Z,20.70
2023-03-07T02:00:31.250Z,20.30
2023-03-07T02:03:39.330Z,20.50
2023-03-07T02:06:11.420Z,19.60
2023-03-07T02:08:40.100Z,21.10
2023-03-07T02:11:08.787Z,21.60
2023-03-07T02:13:36.954Z,20.90
2023-03-07T02:16:06.682Z,21.20
2023-03-07T02:18:39.034Z,18.90
2023-03-07T02:21:30.348Z,20.00
2023-03-07T02:24:16.644Z,17.40
2023-03-07T02:26:47.173Z,17.60
2023-03-07T02:29:16.061Z,18.00
2023-03-07T02:31:47.409Z,17.90
2023-03-07T02:34:27.781Z,29.20
2023-03-07T02:37:09.079Z,37.90
2023-03-07T02:39:39.561Z,42.80
2023-03-07T02:42:10.532Z,46.40
2023-03-07T02:44:47.078Z,56.50
2023-03-07T02:47:17.001Z,30.10
2023-03-07T02:49:45.267Z,20.70
2023-03-07T02:52:13.644Z,21.90
2023-03-07T02:54:41.918Z,22.90
2023-03-07T02:57:10.911Z,18.40
2023-03-07T02:59:39.083Z,17.90
2023-03-07T03:02:08.077Z,16.10
2023-03-07T03:04:36.588Z,17.60
2023-03-07T03:07:04.933Z,17.60
2023-03-07T03:09:33.117Z,16.90
2023-03-07T03:12:01.284Z,17.20
2023-03-07T03:14:30.788Z,18.40
2023-03-07T03:16:59.058Z,16.90
2023-03-07T03:19:29.182Z,18.70
2023-03-07T03:21:57.867Z,18.30
2023-03-07T03:24:26.546Z,18.30
2023-03-07T03:26:58.312Z,18.80
2023-03-07T03:29:27.811Z,17.20
2023-03-07T03:31:58.848Z,15.70
2023-03-07T03:34:27.527Z,17.60
2023-03-07T03:36:55.806Z,17.50
2023-03-07T03:39:24.284Z,18.10
2023-03-07T03:41:57.272Z,17.70
2023-03-07T03:44:25.645Z,18.90
2023-03-07T03:46:55.942Z,19.50
2023-03-07T03:51:54.261Z,20.70
2023-03-07T03:54:22.940Z,28.20
2023-03-07T03:56:51.226Z,22.80
2023-03-07T03:59:19.387Z,21.40
2023-03-07T04:01:48.042Z,20.60
2023-03-07T04:04:16.552Z,20.80
2023-03-07T04:06:44.929Z,24.40
2023-03-07T04:09:13.097Z,20.10
2023-03-07T04:14:12.020Z,18.60
2023-03-07T04:16:40.582Z,22.20
2023-03-07T04:19:12.929Z,21.10
2023-03-07T04:21:41.331Z,20.80
2023-03-07T04:24:10.223Z,21.40
2023-03-07T04:26:38.320Z,24.40
2023-03-07T04:29:06.577Z,21.10
2023-03-07T04:31:40.079Z,21.50
2023-03-07T04:34:08.946Z,21.90
2023-03-07T04:36:37.230Z,20.00
2023-03-07T04:39:05.400Z,19.20
2023-03-07T04:41:34.292Z,19.50
2023-03-07T04:44:06.757Z,19.10
2023-03-07T04:46:35.038Z,19.40
2023-03-07T04:49:03.206Z,19.20
2023-03-07T04:51:31.482Z,19.70
2023-03-07T04:53:59.859Z,19.60
2023-03-07T04:56:28.029Z,19.50
2023-03-07T04:58:56.609Z,20.40
2023-03-07T05:01:24.820Z,19.70
2023-03-07T05:03:53.157Z,18.70
2023-03-07T05:06:22.070Z,18.60
2023-03-07T05:08:52.168Z,21.00
2023-03-07T05:11:21.159Z,19.00
2023-03-07T05:13:50.460Z,20.40
2023-03-07T05:18:49.462Z,18.30
2023-03-07T05:21:18.262Z,18.90
2023-03-07T05:23:46.626Z,19.60
2023-03-07T05:26:15.312Z,20.50
2023-03-07T05:28:43.687Z,18.30
2023-03-07T05:31:11.890Z,19.00
2023-03-07T05:33:42.799Z,18.50
2023-03-07T05:36:11.788Z,17.20
2023-03-07T05:38:40.581Z,17.40
2023-03-07T05:41:09.375Z,18.00
2023-03-07T05:43:37.533Z,18.40
2023-03-07T05:46:06.133Z,16.90
2023-03-07T05:48:34.561Z,21.30
2023-03-07T05:51:02.865Z,21.00
2023-03-07T05:53:31.972Z,21.50
2023-03-07T05:56:00.550Z,21.30
2023-03-07T05:58:29.743Z,19.10
2023-03-07T06:00:58.016Z,19.40
2023-03-07T06:03:26.962Z,18.80
2023-03-07T06:05:55.181Z,19.60
2023-03-07T06:08:23.762Z,18.20
2023-03-07T06:10:53.674Z,17.80
2023-03-07T06:13:24.307Z,17.80
2023-03-07T06:15:53.743Z,19.00
2023-03-07T06:18:23.311Z,18.20
2023-03-07T06:21:02.027Z,19.40
2023-03-07T06:23:33.916Z,21.90
2023-03-07T06:26:03.783Z,21.50
2023-03-07T06:28:32.994Z,21.30
2023-03-07T06:31:09.202Z,18.90
2023-03-07T06:33:37.654Z,20.10
2023-03-07T06:36:11.855Z,19.50
2023-03-07T06:38:41.565Z,17.40
2023-03-07T06:41:10.346Z,18.60
2023-03-07T06:43:39.748Z,20.10
2023-03-07T06:46:08.812Z,19.00
2023-03-07T06:48:40.086Z,19.30
2023-03-07T06:51:11.228Z,20.40
2023-03-07T06:53:41.450Z,20.40
2023-03-07T06:56:10.138Z,20.50
2023-03-07T06:58:39.844Z,20.40
2023-03-07T07:01:16.029Z,20.30
2023-03-07T07:03:44.578Z,19.00
2023-03-07T07:06:12.761Z,20.30
2023-03-07T07:08:42.051Z,19.90
2023-03-07T07:11:10.742Z,22.20
2023-03-07T07:13:39.521Z,21.90
2023-03-07T07:16:09.053Z,19.40
2023-03-07T07:18:38.220Z,19.40
2023-03-07T07:21:06.906Z,26.50
2023-03-07T07:23:35.081Z,24.00
2023-03-07T07:26:05.198Z,26.80
2023-03-07T07:28:34.403Z,20.40
2023-03-07T07:31:04.324Z,22.20
2023-03-07T07:33:33.710Z,20.40
2023-03-07T07:36:02.115Z,18.60
2023-03-07T07:38:30.775Z,19.00
2023-03-07T07:40:59.457Z,19.50
2023-03-07T07:43:27.628Z,18.90
2023-03-07T07:46:04.938Z,18.50
2023-03-07T07:48:33.889Z,19.20
2023-03-07T07:51:03.106Z,20.80
2023-03-07T07:53:32.193Z,21.20
2023-03-07T07:56:00.956Z,21.70
2023-03-07T07:58:29.366Z,21.10
2023-03-07T08:00:58.354Z,20.00
2023-03-07T08:03:27.145Z,20.50
2023-03-07T08:05:55.619Z,20.20
2023-03-07T08:08:23.688Z,19.80
2023-03-07T08:10:52.686Z,19.00
2023-03-07T08:13:21.061Z,19.40
2023-03-07T08:15:49.269Z,20.50
2023-03-07T08:18:17.508Z,24.50
2023-03-07T08:20:45.677Z,21.50
2023-03-07T08:23:13.859Z,20.00
2023-03-07T08:25:42.025Z,21.00
2023-03-07T08:28:10.196Z,20.80
2023-03-07T08:30:38.581Z,19.80
2023-03-07T08:33:07.575Z,20.70
2023-03-07T08:35:35.785Z,19.60
2023-03-07T08:38:04.130Z,18.80
2023-03-07T08:40:32.389Z,19.60
2023-03-07T08:43:01.183Z,18.90
2023-03-07T08:45:29.454Z,19.00
2023-03-07T08:47:58.027Z,19.40
2023-03-07T08:50:28.664Z,19.00
2023-03-07T08:52:57.967Z,19.60
2023-03-07T08:55:26.336Z,18.10
2023-03-07T08:57:54.500Z,15.40
2023-03-07T09:00:22.994Z,16.50
2023-03-07T09:02:51.172Z,16.50
2023-03-07T09:05:19.549Z,16.80
2023-03-07T09:07:47.700Z,17.30
2023-03-07T09:10:17.380Z,17.50
2023-03-07T09:12:45.432Z,16.60
2023-03-07T09:15:13.678Z,13.70
2023-03-07T09:17:41.840Z,13.80
2023-03-07T09:20:12.016Z,13.40
2023-03-07T09:22:40.219Z,14.00
2023-03-07T09:25:09.619Z,14.60
2023-03-07T09:27:37.904Z,12.90
2023-03-07T09:30:06.882Z,13.40
2023-03-07T09:32:35.125Z,11.10
2023-03-07T09:35:04.053Z,13.10
2023-03-07T09:37:32.221Z,15.10
2023-03-07T09:40:00.444Z,13.70
2023-03-07T09:42:40.359Z,14.20
2023-03-07T09:45:11.796Z,13.10
2023-03-07T09:48:25.640Z,12.40
2023-03-07T09:50:58.419Z,13.10
2023-03-07T09:53:48.256Z,12.40
2023-03-07T09:56:22.204Z,12.30
2023-03-07T09:59:22.629Z,13.80
2023-03-07T10:02:17.737Z,14.00
2023-03-07T10:04:52.562Z,12.40
2023-03-07T10:07:24.114Z,12.70
2023-03-07T10:09:57.207Z,12.00
2023-03-07T10:12:25.374Z,11.70
2023-03-07T10:15:03.896Z,13.10
2023-03-07T10:17:47.241Z,12.40
2023-03-07T10:20:45.291Z,12.50
2023-03-07T10:23:41.798Z,13.70
2023-03-07T10:26:12.379Z,11.90
2023-03-07T10:33:40.862Z,11.00
2023-03-07T10:36:35.173Z,12.00
2023-03-07T10:39:34.956Z,10.60
2023-03-07T10:42:03.131Z,11.10
2023-03-07T10:44:34.577Z,11.70
2023-03-07T10:47:03.002Z,11.80
2023-03-07T10:49:33.585Z,11.80
2023-03-07T10:52:13.230Z,11.40
2023-03-07T10:54:41.398Z,10.80
2023-03-07T10:57:14.967Z,10.50
2023-03-07T10:59:45.421Z,10.00
2023-03-07T11:02:25.982Z,10.70
2023-03-07T11:04:54.616Z,10.10
2023-03-07T11:07:29.827Z,11.80
2023-03-07T11:09:59.311Z,11.30
2023-03-07T11:12:29.527Z,10.30
2023-03-07T11:15:09.165Z,10.80
2023-03-07T11:17:45.126Z,9.30
2023-03-07T11:20:49.544Z,8.70
2023-03-07T11:23:24.583Z,8.50
2023-03-07T11:25:55.088Z,9.30
2023-03-07T11:31:04.882Z,9.00
2023-03-07T11:33:58.534Z,9.10
2023-03-07T11:36:28.135Z,9.50
2023-03-07T11:39:15.263Z,9.40
2023-03-07T11:41:47.828Z,8.90
2023-03-07T11:44:29.106Z,10.20
2023-03-07T11:47:13.367Z,8.10
2023-03-07T11:49:57.710Z,7.40
2023-03-07T11:53:12.268Z,8.20
2023-03-07T11:56:13.208Z,8.60
2023-03-07T11:59:24.591Z,8.50
2023-03-07T12:01:56.760Z,9.20
2023-03-07T12:04:43.581Z,8.10
2023-03-07T12:07:17.992Z,8.60
2023-03-07T12:10:23.640Z,8.30
2023-03-07T12:13:10.976Z,8.00
2023-03-07T12:15:51.588Z,8.30
2023-03-07T12:18:44.081Z,8.90
2023-03-07T12:21:43.270Z,8.70
2023-03-07T12:24:23.524Z,8.60
2023-03-07T12:27:03.938Z,8.90
2023-03-07T12:30:04.411Z,8.30
2023-03-07T12:32:34.122Z,8.40
2023-03-07T12:35:21.425Z,8.20
2023-03-07T12:38:14.290Z,9.10
2023-03-07T12:40:46.667Z,7.20
2023-03-07T12:43:48.118Z,7.30
2023-03-07T12:46:34.798Z,8.30
2023-03-07T12:49:49.917Z,8.10
2023-03-07T12:52:29.550Z,8.30
2023-03-07T12:55:19.415Z,7.10
2023-03-07T12:58:07.354Z,7.10
2023-03-07T13:00:43.682Z,7.20
2023-03-07T13:03:17.211Z,7.10
2023-03-07T13:05:45.690Z,7.10
2023-03-07T13:08:20.725Z,8.20
2023-03-07T13:10:48.893Z,6.60
2023-03-07T13:13:45.326Z,6.80
2023-03-07T13:16:32.580Z,6.40
2023-03-07T13:19:35.431Z,6.30
2023-03-07T13:22:16.695Z,7.50
2023-03-07T13:24:46.109Z,6.90
2023-03-07T13:27:31.388Z,6.60
2023-03-07T13:30:08.564Z,5.90
2023-03-07T13:32:52.437Z,6.50
2023-03-07T13:35:33.673Z,6.10
2023-03-07T13:38:07.810Z,6.30
2023-03-07T13:40:38.048Z,6.30
2023-03-07T13:43:28.152Z,6.40
2023-03-07T13:46:05.215Z,8.50
2023-03-07T13:48:33.353Z,6.10
2023-03-07T13:51:01.526Z,6.30
2023-03-07T13:53:44.340Z,6.00
2023-03-07T13:56:15.486Z,7.00
2023-03-07T13:59:09.987Z,6.30
2023-03-07T14:01:53.298Z,6.70
2023-03-07T14:04:51.891Z,6.00
2023-03-07T14:07:34.290Z,7.30
2023-03-07T14:10:21.481Z,7.70
2023-03-07T14:12:52.246Z,5.80
2023-03-07T14:15:29.104Z,6.40
2023-03-07T14:18:27.810Z,6.80
2023-03-07T14:21:03.559Z,7.00
2023-03-07T14:23:59.995Z,7.60
2023-03-07T14:26:58.580Z,8.10
2023-03-07T14:29:28.098Z,6.50
2023-03-07T14:31:58.453Z,6.00
2023-03-07T14:34:35.086Z,6.70
2023-03-07T14:37:07.175Z,6.20
2023-03-07T14:39:44.940Z,6.70
2023-03-07T14:42:42.603Z,6.80
2023-03-07T14:45:13.753Z,6.40
2023-03-07T14:47:51.845Z,7.20
2023-03-07T14:50:22.375Z,6.70
2023-03-07T14:52:58.228Z,6.40
2023-03-07T14:55:28.648Z,6.70
2023-03-07T14:57:56.921Z,7.20
2023-03-07T15:00:28.901Z,6.80
2023-03-07T15:03:07.690Z,6.60
2023-03-07T15:05:38.261Z,6.80
2023-03-07T15:10:46.455Z,7.40
2023-03-07T15:13:23.858Z,6.50
2023-03-07T15:16:21.066Z,6.60
2023-03-07T15:18:55.413Z,6.40
2023-03-07T15:21:24.922Z,6.10
2023-03-07T15:23:55.548Z,6.00
2023-03-07T15:26:25.158Z,6.70
2023-03-07T15:29:08.674Z,6.50
2023-03-07T15:31:58.641Z,7.00
2023-03-07T15:34:30.725Z,6.10
2023-03-07T15:37:22.498Z,6.70
2023-03-07T15:40:08.149Z,5.90
2023-03-07T15:42:49.834Z,5.80
2023-03-07T15:46:01.918Z,6.40
2023-03-07T15:48:38.111Z,6.00
2023-03-07T15:51:12.085Z,6.20
2023-03-07T15:53:41.917Z,6.70
2023-03-07T15:56:27.307Z,6.70
2023-03-07T15:59:00.264Z,6.30
2023-03-07T16:01:28.470Z,5.70
2023-03-07T16:04:03.265Z,6.40
2023-03-07T16:06:45.798Z,5.80
2023-03-07T16:09:16.418Z,6.60
2023-03-07T16:11:46.127Z,6.60
2023-03-07T16:14:26.604Z,6.10
2023-03-07T16:17:04.175Z,6.50
2023-03-07T16:19:32.349Z,6.70
2023-03-07T16:22:00.627Z,6.70
2023-03-07T16:24:28.798Z,5.90
2023-03-07T16:26:58.091Z,6.20
2023-03-07T16:29:26.263Z,5.80
2023-03-07T16:31:54.505Z,6.20
2023-03-07T16:34:23.428Z,6.20
2023-03-07T16:36:51.596Z,6.00
2023-03-07T16:39:19.870Z,6.40
2023-03-07T16:41:49.593Z,5.60
2023-03-07T16:44:20.006Z,6.00
2023-03-07T16:47:11.726Z,6.70
2023-03-07T16:49:40.024Z,5.90
2023-03-07T16:52:12.371Z,6.00
2023-03-07T16:54:40.955Z,5.90
2023-03-07T16:57:14.567Z,5.90
2023-03-07T16:59:46.181Z,5.90
2023-03-07T17:02:19.764Z,6.00
2023-03-07T17:04:48.081Z,6.00
2023-03-07T17:07:18.714Z,6.30
2023-03-07T17:09:46.883Z,5.90
2023-03-07T17:12:15.984Z,6.40
2023-03-07T17:14:44.925Z,6.60
2023-03-07T17:17:29.269Z,7.20
2023-03-07T17:19:57.500Z,7.50
2023-03-07T17:22:25.665Z,7.00
2023-03-07T17:24:53.742Z,6.10
2023-03-07T17:27:22.091Z,6.70
2023-03-07T17:29:54.608Z,6.30
2023-03-07T17:32:22.997Z,6.70
2023-03-07T17:34:51.256Z,6.80
2023-03-07T17:37:19.409Z,7.90
2023-03-07T17:39:48.634Z,7.10
2023-03-07T17:42:16.786Z,6.30
2023-03-07T17:44:44.954Z,5.00
2023-03-07T17:47:13.125Z,6.40
2023-03-07T17:49:41.397Z,5.60
2023-03-07T17:52:09.892Z,5.50
2023-03-07T17:54:38.561Z,5.70
2023-03-07T17:57:08.168Z,5.80
2023-03-07T17:59:36.442Z,6.90
2023-03-07T18:02:05.821Z,7.10
2023-03-07T18:04:34.017Z,7.80
2023-03-07T18:07:02.201Z,7.00
2023-03-07T18:09:31.181Z,5.60
2023-03-07T18:11:59.975Z,5.70
2023-03-07T18:14:28.549Z,6.30
2023-03-07T18:16:56.928Z,5.70
2023-03-07T18:19:26.949Z,5.70
2023-03-07T18:21:55.668Z,4.70
2023-03-07T18:24:26.623Z,5.10
2023-03-07T18:26:55.789Z,5.20
2023-03-07T18:29:24.544Z,6.70
2023-03-07T18:31:52.933Z,5.70
2023-03-07T18:34:21.604Z,6.30
2023-03-07T18:36:51.835Z,6.40
2023-03-07T18:39:21.631Z,4.50
2023-03-07T18:41:50.033Z,3.50
2023-03-07T18:44:18.896Z,3.50
2023-03-07T18:46:47.211Z,5.40
2023-03-07T18:49:16.267Z,3.90
2023-03-07T18:51:46.215Z,3.30
2023-03-07T18:54:14.461Z,5.60
2023-03-07T18:56:46.494Z,3.40
2023-03-07T18:59:15.320Z,2.80
2023-03-07T19:01:44.255Z,3.10
2023-03-07T19:04:12.466Z,2.50
2023-03-07T19:06:44.817Z,2.30
2023-03-07T19:09:18.645Z,2.50
2023-03-07T19:11:47.652Z,2.90
2023-03-07T19:14:15.910Z,2.60
2023-03-07T19:16:44.130Z,2.70
2023-03-07T19:19:12.358Z,2.70
2023-03-07T19:21:40.532Z,2.30
2023-03-07T19:24:11.586Z,1.90
2023-03-07T19:26:41.084Z,1.80
2023-03-07T19:29:11.314Z,1.70
2023-03-07T19:31:41.064Z,1.50
2023-03-07T19:34:09.788Z,3.30
2023-03-07T19:36:39.401Z,1.40
2023-03-07T19:39:15.321Z,1.80
2023-03-07T19:41:45.672Z,2.40
2023-03-07T19:44:14.791Z,2.70
2023-03-07T19:46:46.558Z,2.90
2023-03-07T19:49:18.181Z,2.70
2023-03-07T19:51:46.459Z,2.80
2023-03-07T19:54:15.352Z,2.40
2023-03-07T19:56:45.767Z,2.70
2023-03-07T19:59:14.044Z,2.60
2023-03-07T20:01:42.588Z,4.00
2023-03-07T20:04:16.218Z,3.60
2023-03-07T20:06:44.974Z,3.70
2023-03-07T20:09:13.587Z,3.30
2023-03-07T20:11:45.452Z,3.50
2023-03-07T20:14:13.738Z,4.40
2023-03-07T20:16:42.001Z,4.70
2023-03-07T20:19:10.886Z,5.10
2023-03-07T20:21:40.397Z,9.10
2023-03-07T20:24:09.400Z,8.70
2023-03-07T20:26:39.290Z,5.00
2023-03-07T20:29:09.646Z,5.00
2023-03-07T20:31:39.578Z,4.70
2023-03-07T20:34:08.448Z,4.40
2023-03-07T20:36:37.775Z,4.60
2023-03-07T20:39:08.364Z,5.00
2023-03-07T20:44:08.008Z,5.50
2023-03-07T20:46:37.827Z,4.90
2023-03-07T20:49:06.357Z,4.90
2023-03-07T20:51:36.278Z,4.40
2023-03-07T20:54:07.285Z,4.00
2023-03-07T20:56:37.000Z,4.70
2023-03-07T20:59:06.424Z,4.90
2023-03-07T21:01:35.680Z,4.80
2023-03-07T21:04:06.417Z,5.30
2023-03-07T21:06:35.656Z,5.40
2023-03-07T21:09:08.124Z,4.40
2023-03-07T21:11:38.146Z,4.40
2023-03-07T21:14:06.727Z,5.00
2023-03-07T21:16:35.046Z,5.10
2023-03-07T21:19:05.223Z,4.40
2023-03-07T21:21:35.009Z,4.20
2023-03-07T21:24:04.017Z,4.40
2023-03-07T21:26:34.345Z,4.80
2023-03-07T21:29:05.998Z,5.00
2023-03-07T21:31:35.511Z,5.00
2023-03-07T21:34:06.742Z,4.90
2023-03-07T21:36:35.017Z,4.60
2023-03-07T21:39:10.358Z,6.60
2023-03-07T21:41:38.833Z,7.00
2023-03-07T21:44:07.531Z,5.90
2023-03-07T21:46:35.895Z,6.50
2023-03-07T21:49:04.174Z,5.40
2023-03-07T21:51:32.342Z,4.90
2023-03-07T21:54:01.025Z,6.00
2023-03-07T21:56:29.197Z,7.90
2023-03-07T21:58:57.676Z,8.60
2023-03-07T22:01:28.944Z,5.50
2023-03-07T22:03:59.483Z,7.10
2023-03-07T22:08:59.389Z,6.00
2023-03-07T22:13:55.941Z,8.60
2023-03-07T22:16:24.277Z,8.50
2023-03-07T22:18:56.807Z,9.80
2023-03-07T22:21:26.471Z,8.60
2023-03-07T22:23:58.342Z,10.00
2023-03-07T22:26:28.663Z,10.00
2023-03-07T22:28:56.939Z,10.80
2023-03-07T22:31:25.752Z,7.30
2023-03-07T22:33:54.101Z,5.10
2023-03-07T22:36:22.270Z,5.00
2023-03-07T22:38:55.340Z,4.80
2023-03-07T22:41:24.572Z,4.40
2023-03-07T22:43:52.835Z,4.00
2023-03-07T22:46:22.003Z,3.90
2023-03-07T22:48:55.010Z,7.30
2023-03-07T22:51:24.528Z,5.10
2023-03-07T22:53:53.099Z,6.00
2023-03-07T22:56:24.243Z,5.40
2023-03-07T22:58:52.719Z,7.80
2023-03-07T23:01:25.910Z,7.10
2023-03-07T23:03:55.316Z,5.80
2023-03-07T23:06:25.941Z,6.50
2023-03-07T23:11:24.127Z,4.90
2023-03-07T23:13:53.116Z,4.80
2023-03-07T23:16:24.058Z,4.60
2023-03-07T23:18:55.028Z,4.20
2023-03-07T23:21:27.056Z,3.80
2023-03-07T23:23:56.048Z,4.30
2023-03-07T23:26:26.591Z,4.40
2023-03-07T23:28:55.360Z,3.70
2023-03-07T23:31:32.509Z,3.80
2023-03-07T23:34:02.455Z,3.90
2023-03-07T23:36:32.066Z,3.10
2023-03-07T23:39:00.859Z,3.80
2023-03-07T23:41:29.035Z,4.10
2023-03-07T23:43:59.653Z,3.80
2023-03-07T23:46:28.775Z,4.80
2023-03-07T23:48:57.443Z,4.40
2023-03-07T23:51:25.920Z,5.20
2023-03-07T23:53:53.988Z,5.50
2023-03-07T23:56:22.250Z,5.60
2023-03-07T23:58:51.653Z,4.10
